Time;durP1;ratioP1;P1;durP2;ratioP2;P2;SDS_P1;SDS_P2;PMS_P1;PMS_P2;Temp;Humidity;BMP_temperature;BMP_pressure;BME280_temperature;BME280_humidity;BME280_pressure;Samples;Min_cycle;Max_cycle;Signal;HPM_P1;HPM_P2
2022/04/26 03:36:18;;;;;;;17.98;9.25;;;6.90;99.90;;;;;;5052770;28;20052;-84
2022/04/26 03:38:47;;;;;;;21.40;9.73;;;6.80;99.90;;;;;;5035426;28;20041;-84
2022/04/26 03:41:13;;;;;;;24.13;10.77;;;6.80;99.90;;;;;;5053499;28;20052;-84
2022/04/26 03:43:39;;;;;;;23.45;10.55;;;6.80;99.90;;;;;;5053125;28;20048;-85
2022/04/26 03:46:05;;;;;;;22.08;10.40;;;6.80;99.90;;;;;;5053452;28;20507;-84
2022/04/26 03:48:31;;;;;;;21.92;10.60;;;6.80;99.90;;;;;;5053402;28;20187;-84
2022/04/26 03:50:56;;;;;;;17.33;9.07;;;6.80;99.90;;;;;;5034268;28;20049;-84
2022/04/26 03:53:22;;;;;;;20.70;9.20;;;6.80;99.90;;;;;;5053719;28;20114;-84
2022/04/26 03:55:47;;;;;;;22.20;10.07;;;6.80;99.90;;;;;;5035390;28;20131;-85
2022/04/26 03:58:13;;;;;;;18.05;9.00;;;6.80;99.90;;;;;;5052916;28;20124;-83
2022/04/26 04:00:39;;;;;;;19.30;8.63;;;6.80;99.90;;;;;;5053247;28;20049;-84
2022/04/26 04:03:04;;;;;;;23.17;9.75;;;6.80;99.90;;;;;;5053542;28;20468;-84
2022/04/26 04:05:30;;;;;;;21.35;9.10;;;6.70;99.90;;;;;;5052257;28;20048;-84
2022/04/26 04:07:55;;;;;;;19.37;8.17;;;6.80;99.90;;;;;;5053218;28;20088;-84
2022/04/26 04:10:21;;;;;;;18.45;8.65;;;6.70;99.90;;;;;;5035040;28;20041;-86
2022/04/26 04:12:47;;;;;;;20.88;9.88;;;6.70;99.90;;;;;;5034934;28;20140;-84
2022/04/26 04:15:12;;;;;;;17.73;8.20;;;6.70;99.90;;;;;;5053367;28;20049;-84
2022/04/26 04:17:38;;;;;;;17.10;8.77;;;6.70;99.90;;;;;;5052745;28;20037;-84
2022/04/26 04:20:04;;;;;;;18.92;8.98;;;6.70;99.90;;;;;;5053414;28;20365;-85
2022/04/26 04:22:30;;;;;;;19.55;9.18;;;6.70;99.90;;;;;;5053373;28;20076;-84
2022/04/26 04:24:55;;;;;;;19.93;9.63;;;6.90;99.90;;;;;;5052081;28;20088;-84
2022/04/26 04:27:21;;;;;;;19.87;8.97;;;6.70;99.90;;;;;;5034805;28;20049;-84
2022/04/26 04:29:46;;;;;;;21.23;8.70;;;6.80;99.90;;;;;;5053174;28;20068;-84
2022/04/26 04:32:12;;;;;;;20.50;9.40;;;6.80;99.90;;;;;;5052654;28;20045;-84
2022/04/26 04:34:39;;;;;;;19.75;9.15;;;6.80;99.90;;;;;;5034485;28;20496;-84
2022/04/26 04:37:05;;;;;;;21.35;9.45;;;6.80;99.90;;;;;;5053720;28;20041;-84
2022/04/26 04:39:31;;;;;;;23.00;9.10;;;6.80;99.90;;;;;;5051974;28;20056;-85
2022/04/26 04:41:56;;;;;;;20.10;9.57;;;6.90;99.90;;;;;;5052856;28;20037;-85
2022/04/26 04:44:22;;;;;;;17.95;8.75;;;6.90;99.90;;;;;;5056153;28;20094;-84
2022/04/26 04:46:49;;;;;;;20.17;9.00;;;6.90;99.90;;;;;;5055624;28;20052;-84
2022/04/26 04:49:15;;;;;;;20.80;8.90;;;6.90;99.90;;;;;;5056134;28;20040;-84
2022/04/26 04:51:40;;;;;;;18.23;9.27;;;6.90;99.90;;;;;;5055553;28;20044;-84
2022/04/26 04:54:06;;;;;;;20.20;8.60;;;6.90;99.90;;;;;;5054911;28;20041;-85
2022/04/26 04:56:31;;;;;;;22.97;8.80;;;6.90;99.90;;;;;;5055837;28;20393;-85
2022/04/26 04:58:57;;;;;;;23.47;9.00;;;6.90;99.90;;;;;;5056111;28;20473;-84
2022/04/26 05:01:23;;;;;;;17.83;8.40;;;6.90;99.90;;;;;;5038050;28;20127;-84
2022/04/26 05:03:50;;;;;;;20.90;8.97;;;7.00;99.90;;;;;;5037696;28;20357;-84
2022/04/26 05:06:16;;;;;;;19.13;8.20;;;7.00;99.90;;;;;;5055415;28;20045;-84
2022/04/26 05:08:43;;;;;;;21.80;8.48;;;7.00;99.90;;;;;;5054394;28;20079;-84
2022/04/26 05:11:09;;;;;;;18.75;7.55;;;7.10;99.90;;;;;;5055302;28;20056;-84
2022/04/26 05:13:34;;;;;;;21.80;7.80;;;7.10;99.90;;;;;;5054377;28;20049;-84
2022/04/26 05:16:00;;;;;;;18.98;8.20;;;7.10;99.90;;;;;;5055041;28;20048;-84
2022/04/26 05:18:27;;;;;;;20.55;8.10;;;7.10;99.90;;;;;;5037473;28;20049;-84
2022/04/26 05:20:53;;;;;;;19.02;7.40;;;7.00;99.90;;;;;;5054130;28;20046;-84
2022/04/26 05:26:03;;;;;;;13.77;7.00;;;7.10;99.90;;;;;;5036722;28;20049;-84
2022/04/26 05:28:28;;;;;;;18.67;7.75;;;7.10;99.90;;;;;;5036393;28;20040;-84
2022/04/26 05:30:54;;;;;;;16.50;7.22;;;7.10;99.90;;;;;;5054710;28;20076;-84
2022/04/26 05:33:21;;;;;;;14.63;6.87;;;7.10;99.90;;;;;;5037026;28;20463;-84
2022/04/26 05:35:48;;;;;;;18.70;7.17;;;7.10;99.90;;;;;;5036290;28;20131;-84
2022/04/26 05:38:14;;;;;;;14.90;6.60;;;7.10;99.90;;;;;;5054823;28;20040;-84
2022/04/26 05:40:40;;;;;;;18.52;7.13;;;7.10;99.90;;;;;;5036735;28;20044;-84
2022/04/26 05:43:05;;;;;;;16.48;7.05;;;7.10;99.90;;;;;;5054977;28;20041;-84
2022/04/26 05:45:31;;;;;;;17.73;6.95;;;7.10;99.90;;;;;;5055120;28;20064;-84
2022/04/26 05:47:57;;;;;;;16.98;7.13;;;7.20;99.90;;;;;;5054508;28;20052;-84
2022/04/26 05:50:22;;;;;;;17.58;6.85;;;7.20;99.90;;;;;;5054473;28;20051;-84
2022/04/26 05:52:48;;;;;;;17.35;6.97;;;7.50;99.90;;;;;;5054467;28;20431;-84
2022/04/26 05:55:13;;;;;;;17.10;6.63;;;7.20;99.90;;;;;;5054421;28;20124;-84
2022/04/26 05:57:42;;;;;;;11.88;5.47;;;7.20;99.90;;;;;;5053973;28;20427;-84
2022/04/26 06:00:11;;;;;;;18.05;7.15;;;7.30;99.90;;;;;;5054678;28;20037;-84
2022/04/26 06:02:37;;;;;;;20.52;6.50;;;7.30;99.90;;;;;;5055139;28;20041;-93
2022/04/26 06:05:06;;;;;;;16.80;7.22;;;7.40;99.90;;;;;;5052864;28;20045;-89
2022/04/26 06:07:39;;;;;;;16.13;7.45;;;7.40;99.90;;;;;;5055129;28;20190;-91
2022/04/26 06:10:06;;;;;;;16.23;7.25;;;8.40;99.90;;;;;;5053882;28;20041;-90
2022/04/26 06:12:31;;;;;;;17.65;7.53;;;7.50;99.90;;;;;;5036286;28;20053;-92
2022/04/26 06:14:57;;;;;;;19.33;6.73;;;7.70;99.90;;;;;;5054181;28;20037;-91
2022/04/26 06:17:23;;;;;;;16.90;6.80;;;6.60;99.90;;;;;;5035397;28;20408;-89
2022/04/26 06:19:49;;;;;;;17.17;6.38;;;7.60;99.90;;;;;;5035706;28;20049;-89
2022/04/26 06:22:24;;;;;;;15.75;6.45;;;8.00;99.90;;;;;;5036438;28;20045;-90
2022/04/26 06:24:54;;;;;;;15.77;6.97;;;7.50;99.90;;;;;;5053247;28;20160;-92
2022/04/26 06:27:21;;;;;;;15.90;7.38;;;7.90;99.90;;;;;;5036332;28;20041;-93
2022/04/26 06:29:48;;;;;;;16.40;6.90;;;8.00;99.90;;;;;;5055860;28;20382;-93
2022/04/26 06:32:14;;;;;;;14.85;6.28;;;7.60;99.90;;;;;;5055252;28;20072;-94
2022/04/26 06:34:40;;;;;;;17.35;7.05;;;7.80;99.90;;;;;;5054115;28;20083;-93
2022/04/26 06:37:05;;;;;;;17.42;7.68;;;8.70;99.90;;;;;;5041115;28;20048;-90
2022/04/26 06:39:31;;;;;;;15.18;6.95;;;7.70;99.90;;;;;;5052234;28;20110;-92
2022/04/26 06:41:57;;;;;;;16.05;7.00;;;8.00;99.90;;;;;;5065549;28;20045;-91
2022/04/26 06:44:25;;;;;;;15.13;6.28;;;8.70;99.90;;;;;;5038092;28;20538;-92
2022/04/26 06:46:56;;;;;;;16.10;6.63;;;7.50;99.90;;;;;;5056611;28;20037;-92
2022/04/26 06:49:24;;;;;;;14.43;7.05;;;9.10;99.90;;;;;;5039920;28;20052;-92
2022/04/26 06:51:50;;;;;;;14.02;5.80;;;7.90;99.90;;;;;;5037130;28;20059;-92
2022/04/26 06:54:15;;;;;;;17.13;6.60;;;8.40;99.90;;;;;;5035455;28;20045;-91
2022/04/26 06:56:41;;;;;;;15.45;6.20;;;8.50;99.90;;;;;;5035787;28;20052;-93
2022/04/26 06:59:07;;;;;;;14.73;5.68;;;8.00;99.90;;;;;;5036682;28;20041;-94
2022/04/26 07:01:45;;;;;;;16.45;6.10;;;8.60;99.90;;;;;;5037821;28;20064;-94
2022/04/26 07:04:26;;;;;;;15.93;5.53;;;8.20;99.90;;;;;;5055948;28;20120;-95
2022/04/26 07:07:26;;;;;;;12.27;5.65;;;9.20;99.90;;;;;;5037088;28;20424;-93
2022/04/26 07:09:48;;;;;;;12.82;6.25;;;8.80;99.90;;;;;;5052586;28;20052;-93
2022/04/26 07:13:03;;;;;;;16.25;6.00;;;7.80;99.90;;;;;;5069785;22;20056;-94
2022/04/26 07:15:32;;;;;;;13.35;6.18;;;8.30;99.90;;;;;;4998064;28;20414;-91
2022/04/26 07:18:15;;;;;;;15.27;6.00;;;8.30;99.90;;;;;;4962502;28;20053;-89
2022/04/26 07:20:44;;;;;;;15.85;6.30;;;8.60;99.90;;;;;;4994529;28;20038;-86
2022/04/26 07:23:11;;;;;;;16.77;6.60;;;8.30;99.90;;;;;;4994324;28;20034;-85
2022/04/26 07:25:37;;;;;;;14.38;6.57;;;8.40;99.90;;;;;;4995063;28;20487;-85
2022/04/26 07:28:04;;;;;;;14.20;6.35;;;8.40;99.90;;;;;;4976743;28;20045;-85
2022/04/26 07:30:34;;;;;;;13.32;6.40;;;8.60;99.90;;;;;;4977342;28;20129;-85
2022/04/26 07:35:53;;;;;;;16.25;6.72;;;8.70;99.90;;;;;;4993803;28;20085;-90
2022/04/26 07:38:30;;;;;;;15.57;7.03;;;9.30;99.90;;;;;;4976974;28;20047;-88
2022/04/26 07:41:01;;;;;;;16.88;6.57;;;8.90;99.90;;;;;;4993556;28;20165;-88
2022/04/26 07:43:26;;;;;;;14.00;6.65;;;9.50;99.90;;;;;;4995929;28;20394;-88
2022/04/26 07:45:52;;;;;;;16.38;7.13;;;8.80;99.90;;;;;;5029924;22;20051;-86
2022/04/26 07:48:41;;;;;;;18.83;7.10;;;9.40;99.90;;;;;;5049728;28;20056;-86
2022/04/26 07:52:13;;;;;;;12.93;6.10;;;9.40;99.90;;;;;;5057828;22;20460;-87
2022/04/26 07:55:32;;;;;;;13.13;5.78;;;9.50;99.90;;;;;;5033392;28;20045;-86
2022/04/26 07:58:01;;;;;;;12.13;5.80;;;9.70;99.90;;;;;;5031040;28;20504;-93
2022/04/26 08:00:27;;;;;;;13.68;6.25;;;9.70;99.90;;;;;;5032885;28;20042;-88
2022/04/26 08:02:59;;;;;;;13.55;5.60;;;10.50;99.90;;;;;;5029982;28;20048;-88
2022/04/26 08:05:36;;;;;;;14.55;6.10;;;10.10;99.90;;;;;;5031515;28;20057;-88
2022/04/26 08:08:02;;;;;;;12.80;5.80;;;11.50;99.90;;;;;;5032126;28;20045;-88
2022/04/26 08:10:37;;;;;;;12.75;5.65;;;10.50;99.90;;;;;;5030543;28;20045;-85
2022/04/26 08:13:05;;;;;;;12.20;5.45;;;11.00;99.90;;;;;;5032503;28;20107;-84
2022/04/26 08:15:39;;;;;;;12.38;5.28;;;10.60;99.90;;;;;;5030436;28;20084;-85
2022/04/26 08:18:07;;;;;;;13.20;5.53;;;10.40;99.90;;;;;;5034012;28;20084;-85
2022/04/26 08:20:38;;;;;;;14.00;5.32;;;10.50;99.90;;;;;;5035185;28;20042;-85
2022/04/26 08:23:06;;;;;;;14.13;6.30;;;10.30;99.90;;;;;;5036018;28;20046;-85
2022/04/26 08:28:17;;;;;;;12.25;4.85;;;10.50;99.90;;;;;;5036483;28;20057;-85
2022/04/26 08:30:42;;;;;;;16.02;5.80;;;11.20;99.90;;;;;;5035765;28;20696;-84
2022/04/26 08:33:08;;;;;;;9.75;4.70;;;10.50;99.90;;;;;;5035063;28;20045;-85
2022/04/26 08:35:34;;;;;;;12.98;5.03;;;10.50;99.90;;;;;;5036455;28;20077;-85
2022/04/26 08:38:10;;;;;;;13.80;4.90;;;11.20;99.90;;;;;;5035358;28;20527;-85
2022/04/26 08:40:35;;;;;;;12.25;5.15;;;10.50;99.90;;;;;;5036355;28;20366;-84
2022/04/26 08:43:06;;;;;;;12.25;4.70;;;10.40;99.90;;;;;;5036015;28;20080;-85
2022/04/26 08:45:33;;;;;;;11.90;4.82;;;10.50;99.90;;;;;;5033976;28;20053;-85
2022/04/26 08:53:28;;;;;;;;;;;10.90;99.90;;;;;;5035800;28;20049;-85
2022/04/26 08:56:01;;;;;;;10.48;4.47;;;10.90;99.90;;;;;;5034636;28;20323;-85
2022/04/26 08:58:29;;;;;;;11.43;4.63;;;11.00;99.90;;;;;;5034768;28;20045;-85
2022/04/26 09:01:18;;;;;;;14.10;5.00;;;12.00;99.90;;;;;;5034663;28;20073;-85
2022/04/26 09:03:56;;;;;;;11.77;5.10;;;12.30;99.90;;;;;;5035417;28;20049;-85
2022/04/26 09:06:30;;;;;;;12.48;5.30;;;11.60;99.90;;;;;;5035555;28;20128;-84
2022/04/26 09:09:11;;;;;;;12.40;4.95;;;11.50;99.90;;;;;;5034000;28;20049;-84
2022/04/26 09:11:37;;;;;;;13.77;5.65;;;11.60;99.90;;;;;;5034186;28;20137;-85
2022/04/26 09:14:05;;;;;;;11.30;4.60;;;12.60;99.90;;;;;;5034727;28;20132;-84
2022/04/26 09:16:31;;;;;;;11.52;5.05;;;11.80;99.90;;;;;;5035537;28;20082;-85
2022/04/26 09:19:05;;;;;;;12.88;4.93;;;12.00;99.90;;;;;;5035496;28;20045;-85
2022/04/26 09:21:32;;;;;;;12.68;5.38;;;13.00;99.90;;;;;;5033494;28;20559;-85
2022/04/26 09:24:07;;;;;;;12.02;4.88;;;11.80;99.90;;;;;;5034981;28;20556;-85
2022/04/26 09:26:34;;;;;;;12.05;5.03;;;13.20;99.90;;;;;;5035424;28;20114;-85
2022/04/26 09:28:59;;;;;;;12.05;4.72;;;12.10;99.90;;;;;;5032224;28;20080;-85
2022/04/26 09:31:30;;;;;;;12.65;4.95;;;11.90;99.90;;;;;;5034124;28;20122;-85
2022/04/26 09:33:59;;;;;;;13.68;4.90;;;12.10;99.90;;;;;;5034012;28;20041;-84
2022/04/26 09:36:29;;;;;;;10.75;4.47;;;12.10;99.90;;;;;;5033813;28;20095;-84
2022/04/26 09:39:01;;;;;;;10.57;4.43;;;12.00;99.90;;;;;;5034907;28;20077;-85
2022/04/26 09:41:33;;;;;;;13.73;5.25;;;12.10;99.90;;;;;;5034285;28;20091;-85
2022/04/26 09:44:12;;;;;;;10.88;4.00;;;12.00;99.90;;;;;;5034784;28;20052;-85
2022/04/26 09:46:56;;;;;;;11.70;4.57;;;12.20;99.90;;;;;;5034862;28;20065;-85
2022/04/26 09:49:38;;;;;;;10.23;4.35;;;12.30;99.90;;;;;;5033049;28;20045;-85
2022/04/26 09:52:18;;;;;;;10.07;4.22;;;11.70;99.90;;;;;;5034561;28;20049;-85
2022/04/26 09:54:45;;;;;;;12.32;4.68;;;12.10;99.90;;;;;;5033174;28;20049;-85
2022/04/26 09:57:32;;;;;;;10.48;4.10;;;12.00;99.90;;;;;;5032774;28;20040;-85
2022/04/26 10:00:19;;;;;;;12.13;4.38;;;12.50;99.90;;;;;;5033061;28;20132;-85
2022/04/26 10:03:06;;;;;;;12.07;4.45;;;12.20;99.90;;;;;;5033974;28;20092;-85
2022/04/26 10:05:39;;;;;;;9.93;4.50;;;12.10;99.90;;;;;;5033361;28;20048;-85
2022/04/26 10:08:20;;;;;;;12.13;4.50;;;12.20;99.90;;;;;;5033624;28;20049;-85
2022/04/26 10:11:03;;;;;;;10.27;4.20;;;12.30;99.90;;;;;;5033368;28;20045;-85
2022/04/26 10:13:39;;;;;;;11.02;4.68;;;12.30;99.90;;;;;;5033113;28;20103;-86
2022/04/26 10:16:15;;;;;;;9.85;4.38;;;12.60;99.90;;;;;;5032614;28;20079;-85
2022/04/26 10:19:02;;;;;;;12.45;4.43;;;12.80;99.90;;;;;;5034011;28;20041;-85
2022/04/26 10:21:39;;;;;;;10.80;4.38;;;12.70;99.90;;;;;;5034223;28;20049;-85
2022/04/26 10:24:22;;;;;;;11.18;4.55;;;12.60;99.90;;;;;;5032236;28;20049;-89
2022/04/26 10:33:56;;;;;;;11.18;4.30;;;11.80;99.90;;;;;;5001224;23;20048;-87
2022/04/26 10:37:14;;;;;;;8.75;3.83;;;12.80;99.90;;;;;;5012094;28;20046;-88
2022/04/26 10:39:45;;;;;;;9.63;4.30;;;12.70;99.90;;;;;;5013524;28;20049;-88
2022/04/26 10:42:16;;;;;;;10.52;4.35;;;13.50;99.90;;;;;;5015139;28;20046;-87
2022/04/26 10:44:49;;;;;;;9.90;4.35;;;13.90;99.90;;;;;;5012568;28;20061;-88
2022/04/26 10:47:27;;;;;;;12.00;4.40;;;14.40;99.90;;;;;;5013090;28;20129;-87
2022/04/26 10:50:09;;;;;;;11.40;4.03;;;13.90;99.90;;;;;;5024271;22;20020;-89
2022/04/26 10:52:40;;;;;;;10.82;3.90;;;14.70;99.90;;;;;;5033590;28;20093;-89
2022/04/26 10:55:28;;;;;;;10.38;4.18;;;14.80;99.90;;;;;;5034399;28;20046;-91
2022/04/26 10:58:06;;;;;;;9.85;4.30;;;13.40;99.90;;;;;;5033810;28;20037;-87
2022/04/26 11:00:35;;;;;;;11.02;4.40;;;13.70;99.90;;;;;;5084118;23;20062;-88
2022/04/26 11:04:13;;;;;;;10.38;4.45;;;14.10;99.90;;;;;;4975330;28;20141;-89
2022/04/26 11:06:41;;;;;;;9.95;4.03;;;13.80;99.90;;;;;;4975721;28;20061;-88
2022/04/26 11:09:14;;;;;;;11.45;3.95;;;13.80;99.90;;;;;;4994629;28;20083;-89
2022/04/26 11:19:13;;;;;;;10.60;3.87;;;15.00;99.90;;;;;;5358695;22;20049;-88
2022/04/26 11:22:17;;;;;;;10.25;4.20;;;15.80;99.90;;;;;;5068930;22;20131;-88
2022/04/26 11:30:55;;;;;;;11.57;4.35;;;14.40;99.90;;;;;;5070113;28;20054;-88
2022/04/26 11:33:25;;;;;;;11.00;4.32;;;14.60;99.90;;;;;;5053110;28;20045;-87
2022/04/26 11:36:18;;;;;;;12.30;4.18;;;15.20;99.90;;;;;;5053335;28;20041;-88
2022/04/26 11:39:02;;;;;;;10.35;4.18;;;14.50;99.90;;;;;;5053102;28;20447;-88
2022/04/26 11:41:31;;;;;;;9.55;4.53;;;14.80;99.90;;;;;;5052305;28;20156;-88
2022/04/26 11:44:24;;;;;;;11.57;4.40;;;14.20;99.90;;;;;;5053276;28;20045;-88
2022/04/26 11:47:13;;;;;;;9.32;4.63;;;14.00;99.90;;;;;;5053462;28;20037;-88
2022/04/26 11:52:09;;;;;;;8.70;4.00;;;14.10;99.90;;;;;;5021753;22;20132;-88
2022/04/26 11:54:53;;;;;;;9.57;4.13;;;14.40;99.90;;;;;;5017962;28;20049;-89
2022/04/26 11:57:22;;;;;;;;;;;14.20;99.90;;;;;;5021700;28;20060;-88
2022/04/26 12:00:22;;;;;;;9.35;4.50;;;14.40;99.90;;;;;;5048147;22;20440;-89
2022/04/26 12:02:57;;;;;;;8.77;4.03;;;14.40;99.90;;;;;;5043645;28;20037;-88
2022/04/26 12:05:37;;;;;;;11.48;4.68;;;13.60;99.90;;;;;;5039994;28;20040;-89
2022/04/26 12:08:23;;;;;;;;;;;;;;;;;;;;;
2022/04/26 12:11:23;;;;;;;11.68;4.32;;;14.70;99.90;;;;;;5013611;28;20057;-88
2022/04/26 12:18:27;;;;;;;9.25;3.90;;;14.90;99.90;;;;;;5008993;28;20101;-89
2022/04/26 12:21:20;;;;;;;13.50;4.25;;;15.30;99.90;;;;;;4986406;28;20054;-89
2022/04/26 12:24:31;;;;;;;10.57;4.05;;;15.90;99.90;;;;;;4936540;29;20183;-88
2022/04/26 12:27:14;;;;;;;9.93;4.50;;;16.30;99.90;;;;;;5019265;28;20124;-89
2022/04/26 12:29:46;;;;;;;10.65;4.55;;;15.80;99.40;;;;;;5016761;28;20046;-88
2022/04/26 12:32:21;;;;;;;11.52;4.60;;;15.90;99.80;;;;;;5016307;28;20030;-88
2022/04/26 12:35:09;;;;;;;11.32;4.10;;;15.00;99.90;;;;;;5017145;28;20046;-88
2022/04/26 12:37:41;;;;;;;8.85;3.70;;;15.50;99.90;;;;;;4968967;28;20062;-88
2022/04/26 12:40:10;;;;;;;9.60;4.22;;;15.70;99.90;;;;;;4990501;28;20042;-89
2022/04/26 12:42:45;;;;;;;8.95;4.00;;;15.10;99.90;;;;;;4992098;28;20045;-88
2022/04/26 12:45:49;;;;;;;10.43;4.43;;;15.80;99.90;;;;;;4991656;28;20037;-88
2022/04/26 12:51:31;;;;;;;10.63;4.32;;;15.60;99.20;;;;;;5006662;28;20053;-88
2022/04/26 12:54:08;;;;;;;10.50;4.53;;;14.70;99.70;;;;;;4999299;28;20043;-87
2022/04/26 12:56:33;;;;;;;11.60;4.60;;;14.30;99.90;;;;;;4983546;28;20054;-87
2022/04/26 12:58:59;;;;;;;10.68;4.78;;;14.10;99.90;;;;;;5031176;23;20381;-88
2022/04/26 13:01:31;;;;;;;10.77;4.20;;;14.00;99.90;;;;;;5059051;28;20057;-88
2022/04/26 13:03:58;;;;;;;10.15;4.20;;;15.50;99.90;;;;;;5054466;28;20049;-88
2022/04/26 13:06:25;;;;;;;10.65;4.10;;;14.50;99.90;;;;;;5053637;28;20472;-87
2022/04/26 13:08:54;;;;;;;9.60;3.58;;;14.90;99.90;;;;;;5053746;28;20053;-92
2022/04/26 13:11:25;;;;;;;10.65;4.20;;;15.30;99.90;;;;;;5054328;28;20113;-89
2022/04/26 13:17:12;;;;;;;9.43;3.83;;;15.80;99.50;;;;;;5114694;22;20500;-90
2022/04/26 13:20:39;;;;;;;;;;;;;;;;;;;;;
2022/04/26 13:23:51;;;;;;;9.25;4.07;;;15.80;96.00;;;;;;4935813;29;20042;-90
2022/04/26 13:26:23;;;;;;;11.75;4.15;;;16.80;97.30;;;;;;4955251;29;20051;-92
2022/04/26 13:28:49;;;;;;;8.80;3.65;;;16.20;97.60;;;;;;4991159;22;20041;-87
2022/04/26 13:31:17;;;;;;;11.25;4.10;;;16.60;98.00;;;;;;5054848;28;20463;-87
2022/04/26 13:33:45;;;;;;;10.07;4.15;;;16.20;97.80;;;;;;5054081;28;20066;-84
2022/04/26 13:36:27;;;;;;;10.15;3.88;;;15.70;97.00;;;;;;5055285;28;20087;-85
2022/04/26 13:39:08;;;;;;;9.85;4.00;;;15.80;97.20;;;;;;5054714;28;20098;-88
2022/04/26 13:41:40;;;;;;;11.65;3.92;;;15.40;96.20;;;;;;5052785;28;20052;-85
2022/04/26 13:44:06;;;;;;;10.52;3.97;;;15.60;97.60;;;;;;5054793;28;20111;-85
2022/04/26 13:46:32;;;;;;;9.07;3.30;;;15.80;97.60;;;;;;5053234;28;20423;-85
2022/04/26 13:49:03;;;;;;;8.18;3.60;;;17.10;97.30;;;;;;5049771;28;20136;-86
2022/04/26 13:51:38;;;;;;;9.90;4.03;;;16.20;96.50;;;;;;5044425;28;20048;-86
2022/04/26 13:54:04;;;;;;;10.23;3.70;;;15.70;95.30;;;;;;5042937;28;20501;-86
2022/04/26 13:56:42;;;;;;;10.23;3.78;;;16.60;96.60;;;;;;5044690;28;20095;-86
2022/04/26 13:59:17;;;;;;;12.32;4.10;;;16.10;94.60;;;;;;5045136;28;20052;-86
2022/04/26 14:01:42;;;;;;;10.50;3.78;;;16.60;94.80;;;;;;5042522;28;20033;-86
2022/04/26 14:04:18;;;;;;;10.63;4.22;;;17.80;96.80;;;;;;5043412;28;20480;-85
2022/04/26 14:06:43;;;;;;;9.75;4.20;;;16.80;95.20;;;;;;5045882;28;20187;-87
2022/04/26 14:09:09;;;;;;;11.25;4.10;;;16.40;95.50;;;;;;5044883;28;20499;-86
2022/04/26 14:11:35;;;;;;;11.73;3.83;;;16.90;95.40;;;;;;5047172;28;20038;-87
2022/04/26 14:23:26;;;;;;;9.73;3.28;;;17.10;93.20;;;;;;5044228;28;20041;-87
2022/04/26 14:26:07;;;;;;;8.30;3.25;;;16.60;93.10;;;;;;5049451;28;20055;-85
2022/04/26 14:28:32;;;;;;;9.75;3.40;;;17.10;93.30;;;;;;5054140;28;20041;-87
2022/04/26 14:30:58;;;;;;;8.23;3.30;;;17.20;92.70;;;;;;5045515;28;20412;-88
2022/04/26 14:33:36;;;;;;;9.82;3.20;;;17.30;92.40;;;;;;5027472;28;20053;-88
2022/04/26 14:36:17;;;;;;;10.32;3.92;;;17.80;92.60;;;;;;5030429;28;20466;-87
2022/04/26 14:38:48;;;;;;;10.27;3.58;;;17.20;90.40;;;;;;5032428;28;20029;-87
2022/04/26 14:41:19;;;;;;;9.98;3.28;;;17.80;91.70;;;;;;5027751;28;20045;-87
2022/04/26 14:43:45;;;;;;;10.15;3.85;;;17.60;91.60;;;;;;5016478;28;20073;-86
2022/04/26 14:46:30;;;;;;;8.30;3.45;;;17.90;92.00;;;;;;5024244;28;20111;-88
2022/04/26 14:49:18;;;;;;;9.07;3.30;;;16.60;89.40;;;;;;5025920;28;20420;-88
2022/04/26 14:51:55;;;;;;;10.40;3.20;;;17.20;90.70;;;;;;5062135;23;20055;-88
2022/04/26 14:54:36;;;;;;;8.80;3.17;;;17.10;90.00;;;;;;5053460;28;20036;-87
2022/04/26 14:57:49;;;;;;;9.57;3.50;;;17.70;90.50;;;;;;5075771;28;20042;-87
2022/04/26 15:00:24;;;;;;;8.43;3.15;;;16.70;88.60;;;;;;5054340;28;20454;-87
2022/04/26 15:02:49;;;;;;;8.15;3.17;;;17.50;90.20;;;;;;5071725;28;20052;-89
2022/04/26 15:05:23;;;;;;;9.00;3.28;;;16.80;90.20;;;;;;5052731;28;20397;-88
2022/04/26 15:10:36;;;;;;;8.73;3.30;;;16.70;89.60;;;;;;5073357;28;20056;-89
2022/04/26 15:16:49;;;;;;;9.32;3.05;;;16.40;86.80;;;;;;5035775;28;20044;-88
2022/04/26 15:19:18;;;;;;;8.27;3.25;;;16.50;86.00;;;;;;5060152;28;20041;-91
2022/04/26 15:22:03;;;;;;;9.48;3.13;;;16.60;88.90;;;;;;5050881;28;20047;-91
2022/04/26 15:24:32;;;;;;;9.30;3.42;;;15.70;86.20;;;;;;5055104;28;20119;-89
2022/04/26 15:26:58;;;;;;;10.10;3.20;;;17.40;88.50;;;;;;5054143;28;20048;-89
2022/04/26 15:29:32;;;;;;;9.32;2.97;;;16.40;89.20;;;;;;5073252;28;20048;-89
2022/04/26 15:32:03;;;;;;;8.98;3.00;;;16.60;87.50;;;;;;5073493;28;20044;-90
2022/04/26 15:34:40;;;;;;;8.75;3.00;;;16.50;88.60;;;;;;5059009;22;20069;-91
2022/04/26 15:37:06;;;;;;;9.10;3.30;;;16.40;87.80;;;;;;5042328;22;21040;-86
2022/04/26 15:39:58;;;;;;;9.02;3.10;;;15.80;88.40;;;;;;5051844;28;20408;-88
2022/04/26 15:42:24;;;;;;;9.70;3.05;;;15.80;87.60;;;;;;5035433;28;20146;-87
2022/04/26 15:44:51;;;;;;;11.57;3.20;;;16.40;89.00;;;;;;5052349;28;20049;-92
2022/04/26 15:51:25;;;;;;;8.77;3.10;;;15.50;87.60;;;;;;4977803;28;20387;-87
2022/04/26 15:54:03;;;;;;;9.40;3.28;;;14.60;87.30;;;;;;4961151;28;20046;-88
2022/04/26 15:56:32;;;;;;;8.27;3.20;;;15.30;88.60;;;;;;5045002;28;20048;-88
2022/04/26 15:58:59;;;;;;;11.23;3.38;;;14.20;88.30;;;;;;5067933;28;20047;-87
2022/04/26 16:01:26;;;;;;;9.60;2.97;;;15.90;90.00;;;;;;5057461;28;20094;-87
2022/04/26 16:03:54;;;;;;;8.35;3.10;;;14.40;89.10;;;;;;5065665;28;20450;-87
2022/04/26 16:06:20;;;;;;;10.27;3.83;;;14.30;89.60;;;;;;5063107;28;20046;-88
2022/04/26 16:08:46;;;;;;;8.73;3.40;;;14.70;90.40;;;;;;5052414;28;20399;-88
2022/04/26 16:23:05;;;;;;;11.43;3.80;;;14.50;92.70;;;;;;5059392;28;20490;-86
2022/04/26 16:25:40;;;;;;;10.70;3.78;;;15.40;93.40;;;;;;5062955;28;20154;-87
2022/04/26 16:28:55;;;;;;;8.68;3.55;;;15.10;93.10;;;;;;5060353;28;20033;-87
2022/04/26 16:31:29;;;;;;;9.63;3.30;;;14.40;93.10;;;;;;5001666;28;20100;-88
2022/04/26 16:33:59;;;;;;;11.63;3.58;;;14.00;93.10;;;;;;4976990;28;20050;-87
2022/04/26 16:36:37;;;;;;;9.75;3.38;;;14.40;93.10;;;;;;5042253;28;20419;-87
2022/04/26 16:39:11;;;;;;;7.85;3.10;;;14.70;93.40;;;;;;5044797;28;20179;-88
2022/04/26 16:41:46;;;;;;;8.52;3.35;;;14.40;93.70;;;;;;5044371;28;20052;-87
2022/04/26 16:44:23;;;;;;;9.95;3.33;;;14.50;93.40;;;;;;5042484;28;20076;-85
2022/04/26 16:47:04;;;;;;;7.88;3.33;;;14.20;93.20;;;;;;5048913;28;20081;-86
2022/04/26 16:49:47;;;;;;;9.48;3.58;;;14.40;93.40;;;;;;5045312;28;20053;-88
2022/04/26 16:52:22;;;;;;;9.40;3.50;;;15.20;93.60;;;;;;5044129;28;20090;-87
2022/04/26 16:55:06;;;;;;;9.65;3.88;;;13.80;93.40;;;;;;5045379;28;20038;-87
2022/04/26 16:57:47;;;;;;;;;;;14.00;93.60;;;;;;5044212;28;20048;-88
2022/04/26 17:00:26;;;;;;;9.07;3.60;;;13.60;93.60;;;;;;5100354;22;19919;-87
2022/04/26 17:03:02;;;;;;;8.68;3.40;;;13.20;93.90;;;;;;5060207;28;20052;-88
2022/04/26 17:05:32;;;;;;;9.10;3.40;;;13.00;94.70;;;;;;5048181;22;20052;-89
2022/04/26 17:08:07;;;;;;;8.30;3.58;;;12.80;95.30;;;;;;5088180;22;20061;-87
2022/04/26 17:14:27;;;;;;;10.55;3.60;;;13.20;95.50;;;;;;5033399;28;20045;-87
2022/04/26 17:17:04;;;;;;;11.05;3.40;;;13.70;95.10;;;;;;5029674;28;20404;-87
2022/04/26 17:19:42;;;;;;;10.07;3.22;;;14.00;94.80;;;;;;5037551;28;20037;-89
2022/04/26 17:22:30;;;;;;;9.55;3.10;;;13.60;94.00;;;;;;5042348;28;20401;-88
2022/04/26 17:25:13;;;;;;;8.38;3.00;;;14.20;93.60;;;;;;5052838;22;20046;-88
2022/04/26 17:27:41;;;;;;;10.35;3.30;;;13.80;93.90;;;;;;5035233;23;20066;-88
2022/04/26 17:30:11;;;;;;;11.70;3.20;;;13.70;94.60;;;;;;5057830;28;20045;-88
2022/04/26 17:32:48;;;;;;;9.45;3.40;;;13.00;95.10;;;;;;5074075;28;20036;-88
2022/04/26 17:35:17;;;;;;;9.07;3.15;;;12.50;95.80;;;;;;5073356;28;20048;-88
2022/04/26 17:37:52;;;;;;;8.55;3.08;;;12.30;96.70;;;;;;5070985;28;20105;-88
2022/04/26 17:40:27;;;;;;;7.70;3.00;;;11.40;97.40;;;;;;5057394;28;20090;-89
2022/04/26 17:43:00;;;;;;;8.90;3.42;;;12.10;98.50;;;;;;5075422;28;20123;-86
2022/04/26 17:45:35;;;;;;;8.57;3.20;;;11.90;99.00;;;;;;5059105;28;20083;-87
2022/04/26 17:48:01;;;;;;;10.02;3.80;;;13.30;99.60;;;;;;5075234;28;20055;-87
2022/04/26 17:50:28;;;;;;;8.65;3.53;;;13.20;99.30;;;;;;5075218;28;20044;-87
2022/04/26 17:59:08;;;;;;;8.73;3.85;;;12.70;99.90;;;;;;5074849;28;20048;-87
2022/04/26 18:01:46;;;;;;;8.00;3.13;;;11.50;99.90;;;;;;5056104;28;20097;-87
2022/04/26 18:04:15;;;;;;;11.95;3.63;;;11.50;99.90;;;;;;5056789;28;20041;-87
2022/04/26 18:06:47;;;;;;;9.07;3.47;;;10.80;99.90;;;;;;5078122;28;20369;-89
2022/04/26 18:09:13;;;;;;;8.95;3.50;;;10.90;99.90;;;;;;5056375;28;20620;-88
2022/04/26 18:11:39;;;;;;;9.10;3.70;;;11.10;99.90;;;;;;5057421;28;20048;-86
2022/04/26 18:14:05;;;;;;;9.45;3.38;;;10.70;99.90;;;;;;5058340;28;20059;-86
2022/04/26 18:16:31;;;;;;;10.40;3.65;;;10.70;99.90;;;;;;5062244;28;20044;-86
2022/04/26 18:19:02;;;;;;;9.60;3.67;;;10.60;99.90;;;;;;5057941;28;20037;-85
2022/04/26 18:21:31;;;;;;;10.10;3.20;;;10.40;99.90;;;;;;5051353;28;20392;-86